Time;durP1;ratioP1;P1;durP2;ratioP2;P2;SDS_P1;SDS_P2;PMS_P1;PMS_P2;Temp;Humidity;BMP_temperature;BMP_pressure;BME280_temperature;BME280_humidity;BME280_pressure;Samples;Min_cycle;Max_cycle;Signal;HPM_P1;HPM_P2
2021/11/03 00:00:28;;;;;;;;;15.50;14.00;;;;;13.14;62.36;99218.53;2091664;28;48194;-62
2021/11/03 00:01:30;;;;;;;;;15.50;15.50;;;;;13.15;62.49;99224.72;2092023;28;47011;-62
2021/11/03 00:02:30;;;;;;;;;14.40;13.20;;;;;13.13;62.45;99219.47;2092513;28;46088;-62
2021/11/03 00:03:33;;;;;;;;;15.75;14.75;;;;;13.13;62.62;99210.63;2082977;28;47225;-62
2021/11/03 00:04:38;;;;;;;;;17.00;14.20;;;;;13.12;62.44;99215.09;2089660;28;47149;-62
2021/11/03 00:05:46;;;;;;;;;13.80;12.00;;;;;13.12;62.46;99207.09;2085486;28;47453;-62
2021/11/03 00:06:47;;;;;;;;;12.60;11.00;;;;;13.12;62.52;99220.41;2092384;28;48097;-62
2021/11/03 00:07:47;;;;;;;;;16.00;13.75;;;;;13.13;62.33;99218.59;2091675;28;47097;-62
2021/11/03 00:08:49;;;;;;;;;13.75;13.00;;;;;13.12;62.66;99211.56;2092547;28;47528;-62
2021/11/03 00:09:50;;;;;;;;;14.00;14.00;;;;;13.11;62.64;99216.03;2092126;28;45428;-62
2021/11/03 00:10:52;;;;;;;;;13.50;12.00;;;;;13.10;62.72;99214.31;2082350;28;47281;-61
2021/11/03 00:11:53;;;;;;;;;12.40;12.20;;;;;13.09;62.60;99209.09;2083155;28;48565;-61
2021/11/03 00:12:53;;;;;;;;;13.00;13.00;;;;;13.10;62.68;99219.66;2092178;28;47950;-61
2021/11/03 00:13:54;;;;;;;;;14.50;12.75;;;;;13.10;62.78;99213.47;2091962;28;46993;-62
2021/11/03 00:14:54;;;;;;;;;13.00;11.75;;;;;13.08;62.96;99213.53;2092450;28;47090;-62
2021/11/03 00:15:56;;;;;;;;;13.00;12.50;;;;;13.08;62.82;99210.84;2091896;28;46116;-62
2021/11/03 00:16:57;;;;;;;;;12.40;12.40;;;;;13.08;62.79;99212.66;2092383;28;47014;-62
2021/11/03 00:17:57;;;;;;;;;14.00;12.50;;;;;13.08;62.90;99205.53;2083133;28;47353;-61
2021/11/03 00:18:58;;;;;;;;;14.75;14.00;;;;;13.08;62.87;99202.00;2083626;28;46153;-61
2021/11/03 00:19:58;;;;;;;;;12.25;11.75;;;;;13.07;62.88;99211.81;2082714;28;47964;-62
2021/11/03 00:21:01;;;;;;;;;12.25;11.25;;;;;13.06;62.80;99206.56;2068824;28;48130;-62
2021/11/03 00:22:01;;;;;;;;;12.80;12.80;;;;;13.06;62.93;99214.56;2078687;28;47521;-61
2021/11/03 00:23:03;;;;;;;;;13.75;12.25;;;;;13.06;62.90;99201.25;2092128;28;47429;-62
2021/11/03 00:24:04;;;;;;;;;12.20;12.20;;;;;13.05;62.96;99199.53;2092233;28;48373;-62
2021/11/03 00:25:06;;;;;;;;;11.00;11.00;;;;;13.06;63.08;99206.56;2090448;28;46896;-61
2021/11/03 00:26:07;;;;;;;;;12.40;12.40;;;;;13.05;63.22;99203.03;2092164;28;47301;-62
2021/11/03 00:27:08;;;;;;;;;11.00;10.00;;;;;13.03;63.00;99191.63;2083005;28;47539;-62
2021/11/03 00:28:09;;;;;;;;;13.40;12.00;;;;;13.04;63.13;99200.47;2083329;28;45741;-62
2021/11/03 00:29:09;;;;;;;;;12.00;12.00;;;;;13.03;63.18;99196.09;2087759;28;47329;-62
2021/11/03 00:30:10;;;;;;;;;15.50;15.50;;;;;13.04;63.00;99205.78;2083471;28;45410;-61
2021/11/03 00:31:11;;;;;;;;;11.75;10.00;;;;;13.02;63.14;99197.91;2083020;28;47874;-61
2021/11/03 00:32:13;;;;;;;;;12.25;12.25;;;;;13.02;63.09;99191.72;2092192;28;47495;-61
2021/11/03 00:33:15;;;;;;;;;9.80;9.80;;;;;13.01;63.29;99190.00;2091952;28;47352;-61
2021/11/03 00:34:15;;;;;;;;;14.00;14.00;;;;;13.01;63.28;99195.31;2092208;28;47335;-61
2021/11/03 00:35:17;;;;;;;;;13.00;12.25;;;;;13.00;63.26;99186.47;2091888;28;47068;-61
2021/11/03 00:36:18;;;;;;;;;15.00;13.00;;;;;12.97;63.29;99186.66;2083186;28;45431;-61
2021/11/03 00:37:18;;;;;;;;;11.00;11.00;;;;;12.98;63.34;99192.84;2083175;28;47419;-61
2021/11/03 00:38:20;;;;;;;;;9.75;9.25;;;;;12.97;63.08;99189.31;2095608;28;48300;-61
2021/11/03 00:39:22;;;;;;;;;14.80;13.80;;;;;12.97;63.12;99186.66;2091899;28;47377;-61
2021/11/03 00:40:23;;;;;;;;;13.20;13.20;;;;;12.98;63.14;99182.19;2092296;28;48579;-62
2021/11/03 00:41:23;;;;;;;;;13.25;13.25;;;;;12.98;63.02;99183.03;2086325;28;48490;-61
2021/11/03 00:42:24;;;;;;;;;13.75;13.00;;;;;12.98;63.00;99190.19;2077348;28;47204;-61
2021/11/03 00:43:24;;;;;;;;;11.75;11.75;;;;;12.98;63.16;99179.53;2075657;28;47098;-61
2021/11/03 00:44:26;;;;;;;;;13.00;13.00;;;;;12.99;63.38;99186.56;2082880;28;47122;-61
2021/11/03 00:45:26;;;;;;;;;12.00;11.00;;;;;12.98;63.23;99180.38;2083189;28;47632;-61
2021/11/03 00:46:27;;;;;;;;;10.50;10.25;;;;;12.98;63.12;99177.72;2077697;28;47157;-61
2021/11/03 00:47:27;;;;;;;;;13.25;13.25;;;;;12.99;63.34;99178.56;2088841;28;47875;-61
2021/11/03 00:48:28;;;;;;;;;14.00;13.00;;;;;12.99;63.12;99186.56;2083460;28;47000;-61
2021/11/03 00:49:28;;;;;;;;;13.00;12.00;;;;;12.99;63.39;99175.91;2074762;28;48263;-61
2021/11/03 00:50:29;;;;;;;;;12.00;12.00;;;;;12.99;63.27;99183.91;2078698;28;45035;-61
2021/11/03 00:51:29;;;;;;;;;12.50;12.50;;;;;12.98;63.26;99179.53;2090973;28;47787;-61
2021/11/03 00:52:30;;;;;;;;;10.50;10.50;;;;;12.98;63.37;99179.53;2091437;28;47093;-61
2021/11/03 00:53:31;;;;;;;;;13.00;13.00;;;;;12.96;63.51;99174.28;2091771;28;48589;-62
2021/11/03 00:54:31;;;;;;;;;12.75;11.25;;;;;12.97;63.39;99178.66;2092219;28;46147;-62
2021/11/03 00:55:32;;;;;;;;;14.00;12.00;;;;;12.97;63.28;99181.31;2091839;28;45366;-61
2021/11/03 00:56:33;;;;;;;;;13.75;13.00;;;;;12.98;63.39;99179.53;2092020;28;47425;-61
2021/11/03 00:57:33;;;;;;;;;11.80;10.40;;;;;12.98;63.24;99172.41;2082913;28;47807;-61
2021/11/03 00:58:34;;;;;;;;;11.75;11.75;;;;;12.98;63.29;99174.19;2083086;28;47397;-61
2021/11/03 00:59:34;;;;;;;;;11.00;11.00;;;;;12.96;63.32;99185.78;2090915;28;47252;-61
2021/11/03 01:00:35;;;;;;;;;10.00;10.00;;;;;12.96;63.34;99175.16;2091871;28;47209;-61
2021/11/03 01:01:36;;;;;;;;;11.25;10.75;;;;;12.97;63.17;99178.66;2085481;28;47452;-61
2021/11/03 01:02:37;;;;;;;;;12.00;11.50;;;;;12.97;63.24;99176.00;2083148;28;47479;-61
2021/11/03 01:03:38;;;;;;;;;12.40;12.20;;;;;12.97;63.32;99173.34;2083037;28;47685;-62
2021/11/03 01:04:38;;;;;;;;;10.25;10.25;;;;;12.97;63.30;99173.34;2097989;28;47714;-61
2021/11/03 01:05:39;;;;;;;;;14.00;12.00;;;;;12.98;63.29;99176.88;2091803;28;48092;-61
2021/11/03 01:06:40;;;;;;;;;13.00;13.00;;;;;12.96;63.53;99171.63;2082960;28;47695;-61
2021/11/03 01:07:41;;;;;;;;;13.25;13.25;;;;;12.98;63.58;99172.41;2074679;28;48161;-61
2021/11/03 01:08:42;;;;;;;;;10.00;10.00;;;;;12.98;63.55;99168.88;2083071;28;48084;-61
2021/11/03 01:09:42;;;;;;;;;15.00;15.00;;;;;12.98;63.56;99175.06;2091982;28;48384;-61
2021/11/03 01:10:47;;;;;;;;;11.25;11.25;;;;;12.98;63.39;99171.53;2091379;28;47351;-61
2021/11/03 01:11:48;;;;;;;;;11.20;11.20;;;;;12.98;63.33;99163.56;2089760;28;47246;-61
2021/11/03 01:12:48;;;;;;;;;13.20;13.00;;;;;12.98;63.41;99167.06;2091814;28;48650;-62
2021/11/03 01:13:49;;;;;;;;;12.75;12.75;;;;;12.99;63.47;99165.25;2092063;28;47468;-61
2021/11/03 01:14:50;;;;;;;;;14.60;13.00;;;;;13.00;63.38;99167.84;2091954;28;48419;-62
2021/11/03 01:15:52;;;;;;;;;11.50;11.50;;;;;13.00;63.55;99165.19;2091955;28;48402;-61
2021/11/03 01:16:52;;;;;;;;;11.00;11.00;;;;;13.00;63.62;99165.19;2091812;28;47101;-61
2021/11/03 01:17:55;;;;;;;;;13.75;13.75;;;;;13.00;63.60;99162.50;2091944;28;46122;-61
2021/11/03 01:18:55;;;;;;;;;13.20;12.20;;;;;13.00;63.69;99162.50;2091786;28;47226;-61
2021/11/03 01:19:56;;;;;;;;;15.75;15.00;;;;;12.98;63.50;99167.06;2082961;28;48271;-61
2021/11/03 01:20:57;;;;;;;;;11.25;10.50;;;;;12.97;63.60;99160.03;2082821;28;47424;-61
2021/11/03 01:21:59;;;;;;;;;12.40;12.40;;;;;12.98;63.55;99166.22;2086960;28;45985;-61
2021/11/03 01:23:00;;;;;;;;;11.80;11.80;;;;;12.96;63.66;99161.84;2091792;28;45138;-61
2021/11/03 01:24:00;;;;;;;;;11.40;11.00;;;;;12.96;63.38;99164.50;2091565;28;48073;-61
2021/11/03 01:25:01;;;;;;;;;11.75;11.25;;;;;12.97;63.55;99165.34;2088085;28;48290;-62
2021/11/03 01:26:02;;;;;;;;;11.25;11.25;;;;;12.98;63.65;99168.88;2087238;28;47291;-61
2021/11/03 01:27:03;;;;;;;;;11.75;10.75;;;;;12.98;63.54;99169.72;2091839;28;48129;-61
2021/11/03 01:28:04;;;;;;;;;12.75;12.25;;;;;12.97;63.51;99173.34;2091364;28;48210;-61
2021/11/03 01:29:05;;;;;;;;;14.80;13.00;;;;;12.98;63.71;99169.72;2082938;28;46977;-61
2021/11/03 01:30:12;;;;;;;;;11.40;9.80;;;;;12.97;63.39;99173.34;2082966;28;46139;-61
2021/11/03 01:31:13;;;;;;;;;11.40;11.40;;;;;12.98;63.64;99171.53;2091653;28;47253;-61
2021/11/03 01:32:13;;;;;;;;;10.00;10.00;;;;;12.97;63.65;99173.34;2085461;28;47427;-61
2021/11/03 01:33:16;;;;;;;;;14.00;11.50;;;;;12.96;63.54;99167.16;2082625;28;47163;-61
2021/11/03 01:34:17;;;;;;;;;9.40;9.20;;;;;12.96;63.50;99171.63;2083465;28;45455;-61
2021/11/03 01:35:17;;;;;;;;;13.75;11.75;;;;;12.95;63.62;99173.41;2082487;28;47329;-61
2021/11/03 01:36:18;;;;;;;;;7.75;7.75;;;;;12.95;63.61;99177.88;2082802;28;47042;-62
2021/11/03 01:37:19;;;;;;;;;12.25;10.50;;;;;12.95;63.54;99176.06;2087164;28;48339;-62
2021/11/03 01:38:19;;;;;;;;;9.00;8.50;;;;;12.94;63.45;99174.34;2094798;28;46800;-61
2021/11/03 01:39:20;;;;;;;;;9.00;9.00;;;;;12.93;63.55;99177.97;2091575;28;47203;-61
2021/11/03 01:40:25;;;;;;;;;10.25;10.25;;;;;12.95;63.35;99180.53;2091824;28;46449;-61
2021/11/03 01:41:26;;;;;;;;;10.00;9.00;;;;;12.95;63.53;99180.53;2095114;28;48275;-62
2021/11/03 01:42:27;;;;;;;;;9.75;9.00;;;;;12.94;63.51;99181.47;2094181;28;47089;-62
2021/11/03 01:43:47;;;;;;;;;9.00;8.00;;;;;12.93;63.38;99182.41;2092039;28;47200;-62
2021/11/03 01:44:48;;;;;;;;;7.00;7.00;;;;;12.92;63.49;99186.03;2088939;28;46046;-61
2021/11/03 01:45:48;;;;;;;;;7.60;7.60;;;;;12.92;63.46;99188.69;2090782;28;47398;-61
2021/11/03 01:47:26;;;;;;;;;12.00;9.75;;;;;12.90;63.57;99180.78;2083552;28;47196;-62
2021/11/03 01:48:27;;;;;;;;;9.00;8.75;;;;;12.91;63.46;99190.50;2083603;28;45462;-62
2021/11/03 01:49:29;;;;;;;;;9.00;7.75;;;;;12.91;63.44;99190.50;2091634;28;47996;-62
2021/11/03 01:50:37;;;;;;;;;10.20;10.20;;;;;12.91;63.48;99186.97;2091270;28;48011;-62
2021/11/03 01:51:49;;;;;;;;;9.00;9.00;;;;;12.88;63.51;99180.03;2083296;28;48366;-61
2021/11/03 01:52:57;;;;;;;;;11.00;11.00;;;;;12.87;63.59;99182.78;2088496;28;48116;-61
2021/11/03 01:54:00;;;;;;;;;10.00;10.00;;;;;12.86;63.73;99183.72;2091413;28;47338;-62
2021/11/03 01:55:01;;;;;;;;;11.00;11.00;;;;;12.86;63.70;99183.72;2091679;28;47781;-61
2021/11/03 01:56:09;;;;;;;;;9.20;9.20;;;;;12.86;63.64;99181.06;2082482;28;47567;-62
2021/11/03 01:57:15;;;;;;;;;10.00;10.00;;;;;12.85;63.88;99174.03;2084531;28;47485;-62
2021/11/03 01:58:21;;;;;;;;;13.80;12.00;;;;;12.84;63.90;99173.16;2091374;28;47862;-62
2021/11/03 01:59:24;;;;;;;;;13.00;12.80;;;;;12.84;63.92;99175.84;2092000;28;45338;-62
2021/11/03 02:00:29;;;;;;;;;10.80;10.40;;;;;12.84;63.74;99175.84;2082625;28;48431;-62
2021/11/03 02:01:30;;;;;;;;;10.60;10.60;;;;;12.84;63.90;99182.97;2083209;28;45427;-62
2021/11/03 02:02:33;;;;;;;;;12.00;11.60;;;;;12.83;63.92;99181.22;2091456;28;45394;-62
2021/11/03 02:03:34;;;;;;;;;8.40;8.40;;;;;12.83;63.85;99176.78;2074183;28;46874;-62
2021/11/03 02:04:35;;;;;;;;;10.00;10.00;;;;;12.84;63.84;99177.63;2068605;28;47334;-62
2021/11/03 02:05:37;;;;;;;;;12.20;11.40;;;;;12.82;63.99;99175.03;2091442;28;47284;-62
2021/11/03 02:06:38;;;;;;;;;10.80;10.80;;;;;12.82;63.94;99174.16;2082686;28;48097;-61
2021/11/03 02:07:40;;;;;;;;;9.50;9.50;;;;;12.81;64.06;99173.31;2082612;28;47323;-62
2021/11/03 02:08:43;;;;;;;;;12.20;11.00;;;;;12.81;63.82;99177.78;2082486;28;47494;-61
2021/11/03 02:09:43;;;;;;;;;12.00;12.00;;;;;12.80;64.00;99179.59;2074440;28;48338;-61
2021/11/03 02:10:44;;;;;;;;;10.00;10.00;;;;;12.82;64.02;99182.16;2074355;28;47300;-61
2021/11/03 02:11:45;;;;;;;;;9.00;9.00;;;;;12.81;63.99;99181.28;2080321;28;47490;-61
2021/11/03 02:12:45;;;;;;;;;10.50;9.00;;;;;12.82;63.92;99182.16;2091543;28;48245;-61
2021/11/03 02:13:46;;;;;;;;;7.25;4.25;;;;;12.82;63.83;99182.16;2091297;28;47285;-61
2021/11/03 02:14:49;;;;;;;;;7.80;7.80;;;;;12.81;63.93;99175.97;2082949;28;47083;-61
2021/11/03 02:15:50;;;;;;;;;9.20;9.20;;;;;12.82;63.82;99179.50;2082674;28;47543;-61
2021/11/03 02:16:52;;;;;;;;;8.00;8.00;;;;;12.81;63.91;99177.78;2091643;28;48081;-60
2021/11/03 02:17:54;;;;;;;;;9.40;8.60;;;;;12.81;63.76;99169.78;2091364;28;47158;-61
2021/11/03 02:18:55;;;;;;;;;8.00;8.00;;;;;12.81;63.69;99178.63;2091666;28;46357;-61
2021/11/03 02:19:59;;;;;;;;;9.00;9.00;;;;;12.80;63.87;99179.59;2091159;28;47173;-60
2021/11/03 02:21:00;;;;;;;;;8.00;8.00;;;;;12.81;63.97;99172.44;2084615;28;48619;-60
2021/11/03 02:22:13;;;;;;;;;8.50;8.50;;;;;12.80;63.75;99178.72;2086652;28;48134;-61
2021/11/03 02:23:32;;;;;;;;;10.00;10.00;;;;;12.78;63.87;99180.63;2091508;28;46478;-62
2021/11/03 02:24:48;;;;;;;;;8.20;8.00;;;;;12.77;64.05;99178.91;2093021;28;47375;-62
2021/11/03 02:25:56;;;;;;;;;9.40;9.40;;;;;12.75;63.96;99179.00;2092711;28;47460;-62
2021/11/03 02:26:59;;;;;;;;;8.20;8.20;;;;;12.74;63.78;99177.28;2093181;28;47440;-62
2021/11/03 02:28:05;;;;;;;;;10.00;9.00;;;;;12.73;63.91;99180.88;2083624;28;47745;-62
2021/11/03 02:29:08;;;;;;;;;8.00;6.50;;;;;12.73;63.82;99175.56;2079213;28;46153;-61
2021/11/03 02:30:12;;;;;;;;;7.50;7.50;;;;;12.73;63.97;99172.03;2092896;28;47500;-61
2021/11/03 02:31:32;;;;;;;;;9.50;9.50;;;;;12.72;64.10;99172.97;2092814;28;47334;-62
2021/11/03 02:32:33;;;;;;;;;8.20;6.40;;;;;12.71;64.03;99174.78;2089090;28;48619;-62
2021/11/03 02:33:35;;;;;;;;;9.00;9.00;;;;;12.72;64.10;99176.50;2083712;28;45189;-62
2021/11/03 02:34:35;;;;;;;;;7.20;7.20;;;;;12.71;63.94;99176.59;2083946;28;46995;-61
2021/11/03 02:35:37;;;;;;;;;8.50;8.50;;;;;12.69;64.09;99174.00;2092902;28;47274;-61
2021/11/03 02:37:18;;;;;;;;;10.00;8.25;;;;;12.70;64.05;99174.84;2092861;28;48427;-62
2021/11/03 02:38:27;;;;;;;;;7.40;7.40;;;;;12.69;64.09;99174.00;2089133;28;47084;-61
2021/11/03 02:39:44;;;;;;;;;9.60;7.80;;;;;12.68;64.22;99172.28;2083956;28;47527;-62
2021/11/03 02:40:51;;;;;;;;;8.20;8.20;;;;;12.66;64.10;99172.34;2088428;28;48079;-62
2021/11/03 02:41:53;;;;;;;;;7.75;7.75;;;;;12.64;64.19;99171.59;2084537;28;47478;-61
2021/11/03 02:43:00;;;;;;;;;8.00;7.25;;;;;12.62;64.06;99172.63;2087559;28;47826;-61
2021/11/03 02:44:10;;;;;;;;;6.75;6.75;;;;;12.61;64.08;99173.56;2089111;28;48184;-62
2021/11/03 02:45:26;;;;;;;;;7.60;6.80;;;;;12.61;64.22;99168.25;2084479;28;45431;-61
2021/11/03 02:46:27;;;;;;;;;8.00;8.00;;;;;12.60;64.34;99170.06;2085795;28;47328;-62
2021/11/03 02:47:27;;;;;;;;;9.67;8.67;;;;;12.61;64.25;99176.22;2089549;28;47190;-61
2021/11/03 02:48:31;;;;;;;;;7.00;7.00;;;;;12.62;64.34;99177.94;2092736;28;48131;-62
2021/11/03 02:49:35;;;;;;;;;6.40;6.40;;;;;12.62;64.24;99176.13;2092695;28;47589;-62
2021/11/03 02:50:36;;;;;;;;;8.00;8.00;;;;;12.63;64.26;99174.34;2092362;28;48322;-61
2021/11/03 02:51:40;;;;;;;;;7.00;7.00;;;;;12.62;64.41;99180.59;2092824;28;47350;-60
2021/11/03 02:52:41;;;;;;;;;7.25;6.50;;;;;12.62;64.26;99178.81;2092655;28;48347;-72
2021/11/03 02:53:49;;;;;;;;;6.50;6.50;;;;;12.61;64.43;99177.09;2092660;28;48331;-69
2021/11/03 02:54:50;;;;;;;;;8.00;8.00;;;;;12.62;64.29;99176.13;2084430;28;48480;-69
2021/11/03 02:55:50;;;;;;;;;9.00;8.00;;;;;12.63;64.13;99179.66;2083245;28;47878;-68
2021/11/03 02:56:53;;;;;;;;;7.33;7.00;;;;;12.62;64.30;99181.47;2084025;28;45314;-69
2021/11/03 02:57:54;;;;;;;;;6.50;6.50;;;;;12.61;64.30;99174.44;2092716;28;47258;-68
2021/11/03 02:58:55;;;;;;;;;8.00;7.67;;;;;12.61;64.13;99181.56;2092879;28;47683;-67
2021/11/03 02:59:55;;;;;;;;;8.33;8.00;;;;;12.60;64.22;99180.69;2092587;28;47472;-68
2021/11/03 03:00:57;;;;;;;;;9.25;8.25;;;;;12.59;64.29;99186.97;2092779;28;47393;-68
2021/11/03 03:01:59;;;;;;;;;9.00;9.00;;;;;12.58;64.27;99173.75;2092615;28;48123;-68
2021/11/03 03:03:00;;;;;;;;;8.80;8.80;;;;;12.58;64.44;99177.25;2083933;28;45753;-67
2021/11/03 03:04:02;;;;;;;;;8.25;7.50;;;;;12.57;64.25;99175.50;2084990;28;48244;-66
2021/11/03 03:05:04;;;;;;;;;9.00;6.50;;;;;12.57;64.44;99182.63;2088410;28;47436;-67
2021/11/03 03:06:09;;;;;;;;;6.50;5.75;;;;;12.56;64.37;99183.59;2083682;28;47664;-66
2021/11/03 03:07:11;;;;;;;;;6.00;6.00;;;;;12.56;64.45;99187.09;2092327;28;48620;-66
2021/11/03 03:08:11;;;;;;;;;7.50;6.75;;;;;12.55;64.64;99182.72;2092759;28;48876;-65
2021/11/03 03:09:12;;;;;;;;;8.33;8.33;;;;;12.56;64.47;99184.44;2092812;28;47428;-66
2021/11/03 03:10:13;;;;;;;;;11.75;9.25;;;;;12.55;64.12;99180.06;2092550;28;46823;-66
2021/11/03 03:11:15;;;;;;;;;8.67;7.67;;;;;12.55;64.42;99184.53;2089687;28;47214;-66
2021/11/03 03:12:18;;;;;;;;;8.75;8.75;;;;;12.53;64.09;99187.28;2092826;28;48314;-65
2021/11/03 03:13:19;;;;;;;;;8.50;8.50;;;;;12.52;64.32;99184.69;2092613;28;48146;-66
2021/11/03 03:14:21;;;;;;;;;8.00;7.00;;;;;12.50;64.34;99184.78;2092764;28;48131;-66
2021/11/03 03:15:22;;;;;;;;;9.75;9.25;;;;;12.50;64.37;99189.25;2083517;28;47496;-66
2021/11/03 03:16:23;;;;;;;;;9.00;7.00;;;;;12.48;64.34;99189.34;2083777;28;47969;-66
2021/11/03 03:17:23;;;;;;;;;9.00;9.00;;;;;12.48;64.17;99193.81;2083676;28;48211;-65
2021/11/03 03:18:24;;;;;;;;;7.67;7.33;;;;;12.46;64.31;99193.03;2083751;28;46360;-66
2021/11/03 03:19:25;;;;;;;;;7.67;7.67;;;;;12.46;64.42;99193.88;2092460;28;47125;-66
2021/11/03 03:20:25;;;;;;;;;6.33;6.33;;;;;12.45;64.50;99189.50;2092475;28;47108;-66
2021/11/03 03:21:26;;;;;;;;;9.00;7.00;;;;;12.45;64.40;99191.28;2087966;28;47205;-65
2021/11/03 03:22:27;;;;;;;;;9.60;9.60;;;;;12.45;64.45;99188.63;2091736;28;46287;-65
2021/11/03 03:23:27;;;;;;;;;9.00;8.00;;;;;12.45;64.51;99188.63;2092386;28;47230;-66
2021/11/03 03:24:28;;;;;;;;;8.25;8.00;;;;;12.45;64.45;99191.28;2092649;28;47165;-65
2021/11/03 03:25:29;;;;;;;;;7.00;7.00;;;;;12.44;64.50;99190.41;2085218;28;47334;-65
2021/11/03 03:26:31;;;;;;;;;10.00;8.75;;;;;12.45;64.46;99194.84;2092286;28;48503;-65
2021/11/03 03:27:31;;;;;;;;;8.00;7.50;;;;;12.44;64.61;99187.75;2092641;28;47303;-66
2021/11/03 03:28:32;;;;;;;;;6.00;5.33;;;;;12.44;64.43;99197.53;2092633;28;47379;-65
2021/11/03 03:29:32;;;;;;;;;7.33;7.33;;;;;12.43;64.51;99196.69;2092476;28;46382;-65
2021/11/03 03:30:33;;;;;;;;;8.25;6.50;;;;;12.43;64.46;99199.34;2092356;28;45600;-65
2021/11/03 03:31:35;;;;;;;;;9.00;8.00;;;;;12.41;64.48;99195.91;2075408;28;48226;-65
2021/11/03 03:32:36;;;;;;;;;8.00;8.00;;;;;12.41;64.46;99198.56;2059425;28;47298;-66
2021/11/03 03:33:37;;;;;;;;;8.00;8.00;;;;;12.41;64.61;99201.22;2073202;28;47414;-67
2021/11/03 03:34:37;;;;;;;;;6.50;6.50;;;;;12.42;64.50;99204.75;2084557;28;47138;-66
2021/11/03 03:35:38;;;;;;;;;7.00;7.00;;;;;12.40;64.48;99204.84;2091965;28;47529;-66
2021/11/03 03:36:39;;;;;;;;;7.67;7.67;;;;;12.40;64.56;99201.31;2083720;28;47291;-66
2021/11/03 03:37:39;;;;;;;;;7.67;7.67;;;;;12.40;64.56;99203.97;2086738;28;46054;-68
2021/11/03 03:38:40;;;;;;;;;9.00;9.00;;;;;12.37;64.40;99203.22;2092674;28;46486;-67
2021/11/03 03:39:41;;;;;;;;;9.00;8.00;;;;;12.37;64.84;99208.53;2083472;28;47055;-66
2021/11/03 03:40:42;;;;;;;;;6.25;6.25;;;;;12.38;64.59;99212.91;2076772;28;47609;-66
2021/11/03 03:41:46;;;;;;;;;7.00;7.00;;;;;12.39;64.53;99211.09;2085184;28;48038;-66
2021/11/03 03:42:47;;;;;;;;;7.00;7.00;;;;;12.39;64.48;99213.75;2095878;28;47288;-67
2021/11/03 03:43:48;;;;;;;;;8.00;8.00;;;;;12.38;64.43;99214.72;2090474;28;47344;-66
2021/11/03 03:44:49;;;;;;;;;8.00;8.00;;;;;12.38;64.42;99215.56;2089521;28;47313;-66
2021/11/03 03:45:50;;;;;;;;;6.25;6.25;;;;;12.37;64.59;99220.97;2091460;28;47255;-66
2021/11/03 03:46:51;;;;;;;;;6.67;6.67;;;;;12.36;64.59;99213.94;2084379;28;47348;-67
2021/11/03 03:47:51;;;;;;;;;8.33;8.33;;;;;12.36;64.73;99217.44;2092213;28;47367;-66
2021/11/03 03:48:52;;;;;;;;;6.00;6.00;;;;;12.36;64.67;99217.44;2092536;28;47094;-67
2021/11/03 03:49:53;;;;;;;;;7.00;5.50;;;;;12.37;64.79;99220.97;2092178;28;48256;-66
2021/11/03 03:50:54;;;;;;;;;7.00;6.33;;;;;12.38;64.69;99220.88;2092170;28;45329;-67
2021/11/03 03:51:54;;;;;;;;;6.33;5.33;;;;;12.38;64.74;99217.38;2092052;28;46685;-67
2021/11/03 03:52:55;;;;;;;;;10.00;8.33;;;;;12.38;64.59;99217.38;2092435;28;47632;-66
2021/11/03 03:53:55;;;;;;;;;8.00;7.00;;;;;12.39;64.69;99216.44;2092023;28;48609;-66
2021/11/03 03:54:56;;;;;;;;;6.00;6.00;;;;;12.38;64.58;99215.56;2092488;28;47932;-66
2021/11/03 03:55:56;;;;;;;;;5.00;5.00;;;;;12.38;64.72;99217.38;2092072;28;47457;-67
2021/11/03 03:56:57;;;;;;;;;6.33;6.33;;;;;12.39;64.61;99219.09;2092653;28;45562;-66
2021/11/03 03:57:58;;;;;;;;;5.00;4.67;;;;;12.40;64.58;99219.94;2083406;28;47704;-66
2021/11/03 03:58:58;;;;;;;;;5.67;5.33;;;;;12.40;64.43;99219.94;2083622;28;45324;-66
2021/11/03 03:59:59;;;;;;;;;5.33;5.33;;;;;12.39;64.59;99221.75;2083283;28;46204;-69
2021/11/03 04:00:59;;;;;;;;;7.00;7.00;;;;;12.40;64.30;99220.81;2083421;28;47660;-65
2021/11/03 04:02:01;;;;;;;;;6.00;6.00;;;;;12.39;64.69;99219.09;2089671;28;48497;-67
2021/11/03 04:03:02;;;;;;;;;6.00;6.00;;;;;12.39;64.51;99224.41;2092323;28;47337;-65
2021/11/03 04:04:03;;;;;;;;;5.00;5.00;;;;;12.38;64.51;99223.53;2084916;28;48252;-65
2021/11/03 04:05:04;;;;;;;;;7.00;7.00;;;;;12.40;64.38;99226.13;2087551;28;46420;-66
2021/11/03 04:06:05;;;;;;;;;7.25;7.00;;;;;12.38;64.48;99228.88;2091931;28;47294;-65
2021/11/03 04:07:05;;;;;;;;;4.33;4.00;;;;;12.38;64.64;99228.00;2092471;28;48132;-66
2021/11/03 04:08:06;;;;;;;;;5.33;5.33;;;;;12.39;64.81;99229.72;2083196;28;47343;-66
2021/11/03 04:09:08;;;;;;;;;7.33;6.00;;;;;12.39;64.86;99227.06;2075125;28;48203;-66
2021/11/03 04:10:08;;;;;;;;;6.50;6.50;;;;;12.38;64.51;99226.22;2083381;28;47294;-66
2021/11/03 04:11:09;;;;;;;;;6.67;6.00;;;;;12.38;64.33;99226.22;2089402;28;47318;-65
2021/11/03 04:12:10;;;;;;;;;6.00;6.00;;;;;12.38;64.51;99228.88;2092318;28;48107;-67
2021/11/03 04:13:11;;;;;;;;;10.00;7.33;;;;;12.39;64.56;99229.72;2083211;28;48081;-65
2021/11/03 04:14:12;;;;;;;;;8.50;7.25;;;;;12.40;64.52;99238.56;2083452;28;48441;-66
2021/11/03 04:15:13;;;;;;;;;2.00;2.00;;;;;12.38;64.33;99230.66;2092090;28;48105;-66
2021/11/03 04:16:14;;;;;;;;;7.00;6.40;;;;;12.38;64.80;99238.66;2092134;28;48098;-66
2021/11/03 04:17:15;;;;;;;;;8.00;6.00;;;;;12.37;64.61;99232.47;2083284;28;47112;-65
2021/11/03 04:18:15;;;;;;;;;8.33;8.33;;;;;12.38;64.54;99238.66;2083468;28;47284;-66
2021/11/03 04:19:16;;;;;;;;;9.00;9.00;;;;;12.38;64.42;99233.31;2091767;28;48526;-66
2021/11/03 04:20:17;;;;;;;;;9.25;9.25;;;;;12.38;64.55;99236.00;2083520;28;47847;-65
2021/11/03 04:21:18;;;;;;;;;12.33;11.00;;;;;12.37;64.72;99239.59;2082767;28;47223;-66
2021/11/03 04:22:19;;;;;;;;;9.75;9.50;;;;;12.37;64.87;99237.78;2092293;28;47412;-66
2021/11/03 04:23:20;;;;;;;;;8.67;8.67;;;;;12.39;65.06;99237.72;2083135;28;48227;-66
2021/11/03 04:24:21;;;;;;;;;10.75;10.75;;;;;12.39;64.87;99240.38;2083401;28;46995;-66
2021/11/03 04:25:24;;;;;;;;;9.80;9.80;;;;;12.39;64.66;99240.38;2087089;28;47301;-66
2021/11/03 04:26:31;;;;;;;;;10.60;10.60;;;;;12.38;64.65;99239.50;2091724;28;46445;-66
2021/11/03 04:27:32;;;;;;;;;11.60;11.40;;;;;12.38;64.54;99243.97;2092181;28;48093;-66
2021/11/03 04:28:32;;;;;;;;;11.60;11.60;;;;;12.39;64.38;99248.34;2092298;28;47159;-66
2021/11/03 04:29:33;;;;;;;;;13.00;13.00;;;;;12.37;64.49;99248.44;2074722;28;47043;-67
2021/11/03 04:30:35;;;;;;;;;10.25;9.50;;;;;12.36;64.66;99252.03;2075011;28;47530;-67
2021/11/03 04:31:35;;;;;;;;;19.60;15.00;;;;;12.36;64.59;99248.50;2091708;28;48280;-66
2021/11/03 04:32:36;;;;;;;;;13.75;13.00;;;;;12.35;64.31;99252.13;2092369;28;47176;-66
2021/11/03 04:33:36;;;;;;;;;17.00;16.75;;;;;12.33;64.41;99259.31;2091897;28;47468;-66
2021/11/03 04:34:37;;;;;;;;;17.50;16.75;;;;;12.31;64.51;99258.53;2092303;28;47330;-66
2021/11/03 04:35:38;;;;;;;;;14.75;14.75;;;;;12.29;64.68;99250.63;2091712;28;45338;-66
2021/11/03 04:36:38;;;;;;;;;14.75;13.50;;;;;12.30;64.58;99256.81;2092462;28;46048;-65
2021/11/03 04:37:39;;;;;;;;;17.00;16.50;;;;;12.28;64.54;99256.88;2094987;28;48142;-66
2021/11/03 04:38:40;;;;;;;;;15.40;15.00;;;;;12.28;64.60;99251.56;2092147;28;47866;-66
2021/11/03 04:39:42;;;;;;;;;20.40;18.00;;;;;12.27;64.56;99257.81;2091859;28;48009;-65
2021/11/03 04:40:42;;;;;;;;;18.40;17.80;;;;;12.26;64.37;99255.25;2084912;28;48371;-65
2021/11/03 04:41:43;;;;;;;;;19.00;19.00;;;;;12.23;64.49;99258.94;2084300;28;47062;-65
2021/11/03 04:42:43;;;;;;;;;15.75;14.75;;;;;12.24;64.52;99259.78;2092128;28;48154;-65
2021/11/03 04:43:46;;;;;;;;;15.50;15.50;;;;;12.21;64.54;99257.31;2090489;28;48120;-65
2021/11/03 04:44:47;;;;;;;;;21.40;20.80;;;;;12.20;64.52;99264.41;2089185;28;48064;-65
2021/11/03 04:45:47;;;;;;;;;19.50;18.75;;;;;12.21;64.75;99254.63;2090874;28;47126;-65
2021/11/03 04:46:49;;;;;;;;;16.00;15.00;;;;;12.19;64.63;99259.16;2083666;28;47180;-65
2021/11/03 04:47:50;;;;;;;;;23.00;22.00;;;;;12.18;64.75;99260.09;2087619;28;48231;-65
2021/11/03 04:48:50;;;;;;;;;18.00;18.00;;;;;12.17;64.72;99264.56;2092116;28;47208;-65